CDT,Max TemperatureF,Mean TemperatureF,Min TemperatureF,Max Dew PointF,MeanDew PointF,Min DewpointF,Max Humidity, Mean Humidity, Min Humidity, Max Sea Level PressureIn, Mean Sea Level PressureIn, Min Sea Level PressureIn, Max VisibilityMiles, Mean VisibilityMiles, Min VisibilityMiles, Max Wind SpeedMPH, Mean Wind SpeedMPH, Max Gust SpeedMPH,PrecipitationIn, CloudCover, Events, WindDirDegrees
2013-5-1,50,41,31,41,32,28,96,84,71,30.48,30.31,30.02,10,3,0,25,18,31,0.71,8,Fog-Rain-Snow,1
2013-5-2,47,40,33,30,28,25,82,64,45,30.56,30.49,30.43,10,10,10,32,20,40,0.00,3,,355
2013-5-3,42,36,30,34,30,24,96,76,55,30.42,30.19,30.08,10,9,2,28,18,35,T,6,,15
2013-5-4,41,37,32,39,35,30,100,95,89,30.18,30.11,30.03,10,4,0,25,16,31,0.07,8,Fog-Snow,8
2013-5-5,51,46,40,46,42,38,100,92,83,30.19,30.15,30.11,10,5,1,16,11,23,0.02,8,Rain,353
2013-5-6,69,57,44,50,46,41,92,71,49,30.14,30.10,30.04,10,9,7,12,6,17,0.00,5,,323
2013-5-7,75,59,43,51,46,42,93,63,33,30.08,30.02,29.96,10,8,4,15,6,23,0.00,2,,204
2013-5-8,73,63,53,58,53,47,93,69,44,29.99,29.96,29.94,10,7,2,23,7,28,0.20,7,Rain,81
2013-5-9,65,56,47,56,54,42,100,84,67,30.06,29.94,29.91,10,5,0,26,14,32,0.01,8,Fog,43
2013-5-10,67,52,37,44,35,27,82,52,22,30.11,30.04,29.97,10,10,10,26,11,33,T,2,,345
2013-5-11,55,44,33,43,26,16,70,47,24,30.24,30.16,29.99,10,10,10,38,22,48,0.00,1,Rain,330
2013-5-12,61,45,29,23,19,14,69,43,17,30.27,30.21,30.12,10,10,8,18,9,26,0.00,0,,321
2013-5-13,83,60,37,45,36,24,64,45,26,30.12,29.94,29.73,10,10,10,33,16,40,0.00,0,,196
2013-5-14,104,79,54,53,44,30,72,43,13,29.73,29.64,29.52,10,10,10,38,18,46,0.00,0,,258
2013-5-15,79,66,52,47,42,37,63,45,27,29.94,29.87,29.78,10,10,9,22,9,28,T,2,,21
2013-5-16,86,67,48,61,45,37,93,56,19,29.91,29.86,29.78,10,10,7,22,7,25,0.22,2,Rain-Thunderstorm,165
2013-5-17,76,68,60,66,62,57,97,85,73,29.91,29.87,29.82,10,6,1,22,13,25,1.05,5,Rain-Thunderstorm,117
2013-5-18,83,72,60,65,61,58,93,70,47,29.93,29.85,29.73,10,10,8,23,14,28,0.00,1,,166
2013-5-19,71,67,62,64,62,60,93,83,73,29.77,29.66,29.51,10,7,1,25,13,31,0.81,5,Rain-Thunderstorm,161
2013-5-20,72,64,56,61,57,54,93,75,57,29.58,29.53,29.50,10,9,4,22,15,35,0.09,6,Rain,186
2013-5-21,60,57,54,57,52,48,93,79,64,29.67,29.58,29.50,10,10,8,21,10,24,0.00,8,,234
2013-5-22,54,51,48,52,49,45,93,90,86,29.97,29.74,29.65,10,6,1,20,14,26,0.10,8,Rain,358
2013-5-23,64,54,43,47,41,33,89,60,31,30.32,30.18,29.99,10,10,10,22,12,29,0.00,2,,33
2013-5-24,73,57,41,52,43,36,82,59,35,30.34,30.25,30.13,10,9,2,29,15,36,0.06,3,Rain-Thunderstorm,138
2013-5-25,58,54,49,52,49,47,93,83,72,30.18,30.15,30.11,10,8,2,26,20,33,0.01,8,Rain,128
2013-5-26,57,53,49,53,50,46,96,91,86,30.14,30.06,29.88,10,6,1,35,16,40,1.57,8,Rain-Thunderstorm,112
2013-5-27,60,57,53,57,54,51,100,93,86,29.98,29.84,29.77,10,3,1,25,13,31,0.68,8,Rain-Thunderstorm,59
2013-5-28,69,63,56,61,58,55,100,87,73,29.77,29.73,29.68,10,4,0,14,7,16,0.03,5,Fog-Rain,28
2013-5-29,75,67,58,67,61,55,100,87,73,29.78,29.70,29.60,10,6,0,26,14,33,0.23,6,Fog-Rain-Thunderstorm,138
2013-5-30,71,66,61,63,61,58,87,82,76,29.63,29.55,29.49,10,10,5,32,19,40,0.11,5,Rain-Thunderstorm,170
2013-5-31,76,66,55,54,51,46,80,59,38,29.60,29.55,29.53,10,10,8,35,18,43,0.05,2,Rain,214